Time;durP1;ratioP1;P1;durP2;ratioP2;P2;SDS_P1;SDS_P2;PMS_P1;PMS_P2;Temp;Humidity;BMP_temperature;BMP_pressure;BME280_temperature;BME280_humidity;BME280_pressure;Samples;Min_cycle;Max_cycle;Signal;HPM_P1;HPM_P2
2024/03/18 06:00:39;;;;;;;11.30;6.18;;;10.30;99.30;;;;;;4791998;23;20058;-80
2024/03/18 06:02:40;;;;;;;8.90;5.70;;;10.40;99.50;;;;;;4102243;29;20138;-76
2024/03/18 06:04:42;;;;;;;13.32;5.88;;;10.30;99.40;;;;;;4101940;29;20055;-79
2024/03/18 06:06:43;;;;;;;12.68;5.95;;;10.30;99.30;;;;;;4102181;29;20281;-79
2024/03/18 06:08:44;;;;;;;11.35;6.72;;;10.40;99.30;;;;;;4101872;29;20043;-81
2024/03/18 06:10:46;;;;;;;10.43;6.40;;;10.30;99.30;;;;;;4101866;29;20528;-80
2024/03/18 06:12:49;;;;;;;12.48;6.60;;;10.40;99.30;;;;;;4101892;29;20082;-79
2024/03/18 06:14:50;;;;;;;9.73;6.05;;;10.40;99.30;;;;;;4101717;29;20075;-79
2024/03/18 06:16:54;;;;;;;9.95;6.03;;;10.40;99.20;;;;;;4101678;29;20106;-78
2024/03/18 06:18:56;;;;;;;10.65;6.07;;;10.40;99.40;;;;;;4101755;29;20051;-77
2024/03/18 06:21:00;;;;;;;10.88;6.00;;;10.40;99.40;;;;;;4091153;28;20048;-77
2024/03/18 06:23:03;;;;;;;8.25;5.90;;;10.40;99.40;;;;;;4085874;29;20079;-78
2024/03/18 06:27:25;;;;;;;10.57;6.43;;;10.50;99.20;;;;;;4085848;29;20090;-78
2024/03/18 06:29:27;;;;;;;9.02;5.88;;;10.50;99.10;;;;;;4085798;29;20048;-80
2024/03/18 06:31:28;;;;;;;11.80;6.50;;;10.50;99.20;;;;;;4085823;28;20044;-79
2024/03/18 06:33:31;;;;;;;12.30;6.95;;;10.50;99.20;;;;;;4085620;29;20158;-77
2024/03/18 06:35:32;;;;;;;12.35;6.55;;;10.50;99.40;;;;;;4085644;29;20055;-78
2024/03/18 06:37:35;;;;;;;11.23;6.18;;;10.40;99.30;;;;;;4085621;28;20386;-76
2024/03/18 06:39:37;;;;;;;12.13;6.72;;;10.50;99.30;;;;;;4085675;29;20502;-79
2024/03/18 06:41:39;;;;;;;13.13;7.05;;;10.50;99.40;;;;;;4100405;29;20051;-79
2024/03/18 06:43:41;;;;;;;14.30;6.57;;;10.50;99.40;;;;;;4101293;29;20110;-77
2024/03/18 06:45:43;;;;;;;13.93;7.40;;;10.50;99.40;;;;;;4100702;28;20092;-77
2024/03/18 06:47:45;;;;;;;10.65;7.38;;;10.40;99.70;;;;;;4102072;28;20055;-76
2024/03/18 06:49:48;;;;;;;12.70;7.03;;;10.30;99.90;;;;;;4117274;28;20117;-77
2024/03/18 06:51:49;;;;;;;12.50;7.68;;;10.30;99.90;;;;;;4117262;28;20121;-78
2024/03/18 06:53:51;;;;;;;15.57;8.30;;;10.30;99.90;;;;;;4117007;28;20047;-80
2024/03/18 06:55:53;;;;;;;11.68;6.95;;;10.30;99.90;;;;;;4117151;28;20050;-76
2024/03/18 06:57:54;;;;;;;12.63;7.47;;;10.30;99.90;;;;;;4116965;28;20057;-79
2024/03/18 06:59:58;;;;;;;12.23;7.30;;;10.30;99.90;;;;;;4117125;28;20047;-79
2024/03/18 07:02:00;;;;;;;16.42;9.05;;;10.40;99.90;;;;;;4116848;28;20058;-78
2024/03/18 07:04:03;;;;;;;13.57;8.45;;;10.40;99.90;;;;;;4117155;28;20071;-76
2024/03/18 07:06:06;;;;;;;12.77;7.85;;;10.40;99.80;;;;;;4116984;28;20050;-76
2024/03/18 07:08:07;;;;;;;14.77;7.15;;;10.40;99.90;;;;;;4116994;28;20094;-77
2024/03/18 07:10:10;;;;;;;13.00;7.78;;;10.50;99.90;;;;;;4116870;28;20059;-76
2024/03/18 07:12:12;;;;;;;12.57;7.53;;;10.40;99.90;;;;;;4116952;28;20082;-76
2024/03/18 07:14:14;;;;;;;12.02;7.63;;;10.40;99.90;;;;;;4116995;28;20105;-76
2024/03/18 07:16:16;;;;;;;12.40;7.70;;;10.40;99.90;;;;;;4113945;28;20053;-78
2024/03/18 07:18:18;;;;;;;13.00;7.80;;;10.30;99.90;;;;;;4119326;28;20413;-79
2024/03/18 07:20:20;;;;;;;11.35;7.38;;;10.30;99.90;;;;;;4117801;28;20137;-79
2024/03/18 07:22:25;;;;;;;11.20;7.38;;;10.30;99.90;;;;;;4116509;28;20122;-79
2024/03/18 07:24:26;;;;;;;12.07;7.13;;;10.40;99.90;;;;;;4117049;28;20050;-77
2024/03/18 07:26:28;;;;;;;11.13;7.00;;;10.50;99.90;;;;;;4116313;28;20081;-77
2024/03/18 07:28:33;;;;;;;10.50;6.68;;;10.50;99.90;;;;;;4116761;28;20050;-77
2024/03/18 07:30:35;;;;;;;10.60;7.40;;;10.50;99.90;;;;;;4116733;28;20412;-78
2024/03/18 07:32:36;;;;;;;10.10;6.72;;;10.60;99.90;;;;;;4116671;28;20043;-78
2024/03/18 07:34:38;;;;;;;14.15;7.43;;;10.60;99.80;;;;;;4116752;28;20381;-77
2024/03/18 07:36:40;;;;;;;14.27;9.00;;;10.60;99.90;;;;;;4116726;28;20467;-78
2024/03/18 07:38:43;;;;;;;14.48;9.00;;;10.60;99.90;;;;;;4116666;28;20447;-78
2024/03/18 07:40:45;;;;;;;11.88;8.43;;;10.70;99.90;;;;;;4106882;28;20040;-77
2024/03/18 07:42:47;;;;;;;12.60;8.60;;;10.70;99.90;;;;;;4084881;29;20044;-78
2024/03/18 07:44:49;;;;;;;10.45;7.47;;;10.70;99.90;;;;;;4084812;29;20051;-78
2024/03/18 07:46:50;;;;;;;12.55;8.48;;;10.70;99.90;;;;;;4085032;29;20051;-78
2024/03/18 07:48:52;;;;;;;13.40;7.90;;;10.80;99.90;;;;;;4085000;29;20470;-77
2024/03/18 07:50:56;;;;;;;12.35;7.65;;;10.80;99.90;;;;;;4084628;29;20099;-78
2024/03/18 07:52:57;;;;;;;11.93;7.53;;;10.80;99.90;;;;;;4084597;29;20047;-78
2024/03/18 07:55:01;;;;;;;11.68;7.72;;;10.80;99.90;;;;;;4084739;29;20058;-79
2024/03/18 07:57:02;;;;;;;11.25;7.63;;;10.80;99.90;;;;;;4084490;29;20412;-78
2024/03/18 07:59:04;;;;;;;10.80;7.50;;;10.80;99.80;;;;;;4085036;29;20063;-78
2024/03/18 08:01:06;;;;;;;11.43;7.10;;;10.90;99.90;;;;;;4089901;29;20054;-78
2024/03/18 08:03:07;;;;;;;14.02;7.68;;;10.90;99.70;;;;;;4100462;29;20457;-79
2024/03/18 08:05:09;;;;;;;13.32;8.02;;;10.90;99.70;;;;;;4100501;29;20100;-79
2024/03/18 08:07:10;;;;;;;12.52;7.55;;;10.90;99.80;;;;;;4100360;29;20106;-79
2024/03/18 08:09:12;;;;;;;10.80;7.97;;;10.90;99.80;;;;;;4108209;28;20058;-79
2024/03/18 08:11:15;;;;;;;12.73;8.05;;;11.00;99.60;;;;;;4116118;28;20054;-79
2024/03/18 08:13:17;;;;;;;11.82;7.65;;;10.90;99.60;;;;;;4116433;28;20082;-80
2024/03/18 08:15:19;;;;;;;15.18;8.60;;;11.00;99.60;;;;;;4116313;28;20051;-79
2024/03/18 08:17:21;;;;;;;12.23;7.68;;;11.00;99.70;;;;;;4106737;28;20485;-79
2024/03/18 08:19:23;;;;;;;12.00;8.27;;;11.00;99.70;;;;;;4100450;29;20085;-79
2024/03/18 08:21:24;;;;;;;11.02;7.78;;;11.00;99.70;;;;;;4100232;29;20464;-79
2024/03/18 08:23:25;;;;;;;9.38;7.00;;;11.00;99.60;;;;;;4100571;29;20062;-78
2024/03/18 08:25:28;;;;;;;12.43;8.38;;;11.00;99.60;;;;;;4100270;29;20047;-79
2024/03/18 08:27:32;;;;;;;13.07;7.90;;;11.00;99.80;;;;;;4100229;29;20047;-79
2024/03/18 08:29:34;;;;;;;13.55;7.97;;;11.00;99.80;;;;;;4100271;29;20051;-79
2024/03/18 08:31:35;;;;;;;12.02;8.20;;;11.00;99.70;;;;;;4100360;29;20106;-80
2024/03/18 08:33:37;;;;;;;13.43;8.05;;;11.00;99.80;;;;;;4100049;29;20047;-79
2024/03/18 08:35:38;;;;;;;11.98;7.95;;;11.00;99.70;;;;;;4100273;29;20051;-79
2024/03/18 08:37:42;;;;;;;13.55;8.70;;;11.00;99.80;;;;;;4111315;28;20051;-79
2024/03/18 08:39:43;;;;;;;13.45;8.02;;;11.00;99.90;;;;;;4116019;28;20118;-79
2024/03/18 08:41:46;;;;;;;12.52;8.32;;;11.00;99.90;;;;;;4116167;28;20054;-79
2024/03/18 08:43:49;;;;;;;13.95;8.90;;;11.00;99.90;;;;;;4116137;28;20046;-79
2024/03/18 08:45:52;;;;;;;15.63;9.57;;;11.00;99.90;;;;;;4116096;28;20104;-80
2024/03/18 08:47:54;;;;;;;12.88;8.20;;;11.10;99.90;;;;;;4116189;28;20080;-79
2024/03/18 08:49:56;;;;;;;11.57;7.82;;;11.00;99.90;;;;;;4116091;28;20101;-78
2024/03/18 08:51:58;;;;;;;11.38;7.50;;;11.00;99.90;;;;;;4115908;28;20051;-79
2024/03/18 08:53:58;;;;;;;16.30;10.68;;;11.00;99.90;;;;;;4116092;28;20551;-78
2024/03/18 08:56:00;;;;;;;30.05;18.63;;;11.10;99.90;;;;;;4116370;28;20054;-78
2024/03/18 08:58:02;;;;;;;37.63;21.23;;;11.10;99.90;;;;;;4115974;28;20046;-80
2024/03/18 09:00:10;;;;;;;30.73;18.70;;;11.10;99.90;;;;;;4116122;28;20109;-79
2024/03/18 09:02:12;;;;;;;27.42;16.08;;;11.10;99.90;;;;;;4112632;28;20054;-79
2024/03/18 09:04:14;;;;;;;15.50;9.00;;;11.10;99.90;;;;;;4115649;28;20473;-78
2024/03/18 09:06:15;;;;;;;13.25;7.95;;;11.10;99.90;;;;;;4084047;29;20053;-78
2024/03/18 09:08:17;;;;;;;11.75;8.00;;;11.10;99.90;;;;;;4084079;29;20083;-78
2024/03/18 09:10:19;;;;;;;12.35;8.13;;;11.10;99.90;;;;;;4086343;29;20056;-78
2024/03/18 09:12:20;;;;;;;11.57;7.45;;;11.20;99.90;;;;;;4087050;29;20044;-77
2024/03/18 09:14:22;;;;;;;11.05;6.88;;;11.20;99.90;;;;;;4086832;29;20083;-79
2024/03/18 09:16:25;;;;;;;11.95;6.85;;;11.20;99.90;;;;;;4086912;29;20055;-77
2024/03/18 09:18:26;;;;;;;11.57;6.90;;;11.20;99.90;;;;;;4086776;29;20048;-78
2024/03/18 09:20:28;;;;;;;13.20;6.82;;;11.30;99.90;;;;;;4086815;29;20138;-79
2024/03/18 09:22:29;;;;;;;13.18;7.82;;;11.30;99.90;;;;;;4086636;29;20048;-78
2024/03/18 09:24:32;;;;;;;12.68;7.85;;;11.30;99.90;;;;;;4086703;29;20453;-78
2024/03/18 09:26:34;;;;;;;16.30;9.02;;;11.30;99.90;;;;;;4086535;29;20204;-78
2024/03/18 09:28:36;;;;;;;14.13;8.70;;;11.40;99.90;;;;;;4086546;29;20054;-76
2024/03/18 09:30:38;;;;;;;12.63;8.30;;;11.40;99.90;;;;;;4086684;29;20107;-78
2024/03/18 09:32:41;;;;;;;13.88;8.13;;;11.40;99.90;;;;;;4092190;28;20046;-79
2024/03/18 09:34:43;;;;;;;11.43;7.72;;;11.40;99.90;;;;;;4118359;28;20481;-78
2024/03/18 09:36:46;;;;;;;10.60;7.80;;;11.40;99.90;;;;;;4118503;28;20078;-78
2024/03/18 09:38:48;;;;;;;14.02;8.40;;;11.50;99.90;;;;;;4118251;28;20137;-78
2024/03/18 09:40:50;;;;;;;12.10;7.57;;;11.50;99.90;;;;;;4118671;28;20050;-76
2024/03/18 09:42:52;;;;;;;13.32;8.18;;;11.50;99.90;;;;;;4118525;28;20047;-79
2024/03/18 09:44:54;;;;;;;11.90;8.38;;;11.50;99.90;;;;;;4118775;28;20043;-77
2024/03/18 09:46:57;;;;;;;11.43;7.43;;;11.50;99.90;;;;;;4118516;28;20432;-77
2024/03/18 09:49:01;;;;;;;13.10;8.35;;;11.50;99.90;;;;;;4100181;28;20470;-77
2024/03/18 09:51:04;;;;;;;11.75;7.60;;;11.60;99.90;;;;;;4084250;29;20095;-76
2024/03/18 09:53:06;;;;;;;11.95;7.53;;;11.60;99.90;;;;;;4084197;29;20060;-78
2024/03/18 09:55:23;;;;;;;10.75;6.60;;;11.60;99.90;;;;;;4084419;29;20056;-78
2024/03/18 09:57:24;;;;;;;11.40;6.68;;;11.60;99.90;;;;;;4084903;28;20560;-78
2024/03/18 09:59:26;;;;;;;10.40;6.80;;;11.60;99.90;;;;;;4084025;29;20060;-78
2024/03/18 10:01:29;;;;;;;13.13;8.98;;;11.60;99.90;;;;;;4103467;28;20055;-77
2024/03/18 10:03:31;;;;;;;15.00;9.13;;;11.60;99.90;;;;;;4116106;28;20416;-78
2024/03/18 10:05:34;;;;;;;9.85;6.50;;;11.60;99.90;;;;;;4114011;28;20055;-78
2024/03/18 10:07:35;;;;;;;12.40;5.93;;;11.60;99.90;;;;;;4115887;28;20463;-77
2024/03/18 10:09:37;;;;;;;11.10;6.45;;;11.60;99.70;;;;;;4115950;28;20407;-76
2024/03/18 10:11:39;;;;;;;10.40;6.68;;;11.50;99.70;;;;;;4115639;28;20106;-78
2024/03/18 10:13:40;;;;;;;12.90;6.80;;;11.40;99.90;;;;;;4115500;28;20486;-78
2024/03/18 10:15:42;;;;;;;10.60;6.90;;;11.50;99.90;;;;;;4115683;28;20047;-78
2024/03/18 10:17:44;;;;;;;12.70;7.75;;;11.60;99.90;;;;;;4115684;28;20472;-78
2024/03/18 10:19:46;;;;;;;13.27;7.15;;;11.50;99.90;;;;;;4115660;28;20058;-77
2024/03/18 10:21:51;;;;;;;10.77;6.93;;;11.60;99.90;;;;;;4114553;28;20459;-77
2024/03/18 10:23:56;;;;;;;12.40;6.97;;;11.60;99.90;;;;;;4115481;28;20055;-79
2024/03/18 10:26:01;;;;;;;11.02;8.00;;;11.60;99.90;;;;;;4115688;28;20109;-78
2024/03/18 10:28:05;;;;;;;10.85;7.15;;;11.60;99.90;;;;;;4115640;28;20067;-79
2024/03/18 10:30:12;;;;;;;10.57;6.88;;;11.40;99.90;;;;;;4087285;28;20497;-78
2024/03/18 10:32:24;;;;;;;12.25;7.70;;;11.50;99.90;;;;;;4083629;29;20056;-77
2024/03/18 10:34:28;;;;;;;10.02;7.30;;;11.40;99.90;;;;;;4083584;29;20051;-77
2024/03/18 10:36:35;;;;;;;10.25;6.45;;;11.40;99.90;;;;;;4083685;29;20477;-77
2024/03/18 10:38:44;;;;;;;8.88;6.60;;;11.50;99.90;;;;;;4083526;29;20527;-78
2024/03/18 10:40:47;;;;;;;11.95;6.68;;;11.50;99.90;;;;;;4083673;29;20091;-83
2024/03/18 10:42:50;;;;;;;11.15;7.60;;;11.60;99.90;;;;;;4083826;28;20482;-83
2024/03/18 10:45:00;;;;;;;11.05;7.95;;;11.50;99.90;;;;;;4083301;29;20043;-79
2024/03/18 10:47:04;;;;;;;12.23;7.57;;;11.50;99.90;;;;;;4083642;28;20055;-79
2024/03/18 10:49:06;;;;;;;13.82;7.72;;;11.50;99.90;;;;;;4083194;29;20568;-79
2024/03/18 10:51:12;;;;;;;11.00;7.18;;;11.50;99.90;;;;;;4083436;29;20099;-78
2024/03/18 10:53:18;;;;;;;9.68;6.75;;;11.40;99.90;;;;;;4083381;29;20752;-80
2024/03/18 10:55:23;;;;;;;;;;;11.40;99.90;;;;;;4086262;28;20561;-79
2024/03/18 10:57:25;;;;;;;12.57;7.22;;;11.50;99.90;;;;;;4083245;29;20029;-78
2024/03/18 10:59:28;;;;;;;10.02;6.72;;;11.60;99.90;;;;;;4083127;29;20508;-79
2024/03/18 11:01:29;;;;;;;12.13;7.28;;;11.60;99.90;;;;;;4091288;29;20063;-79
2024/03/18 11:03:31;;;;;;;9.57;6.13;;;11.60;99.90;;;;;;4099007;29;20110;-79
2024/03/18 11:05:34;;;;;;;9.57;6.20;;;11.50;99.90;;;;;;4097029;29;20055;-79
2024/03/18 11:07:36;;;;;;;9.02;6.00;;;11.60;99.90;;;;;;4098997;29;20059;-78
2024/03/18 11:09:39;;;;;;;11.63;6.60;;;11.60;99.90;;;;;;4098901;29;20461;-78
2024/03/18 11:11:44;;;;;;;9.82;5.90;;;11.60;99.90;;;;;;4098918;29;20079;-78
2024/03/18 11:13:46;;;;;;;9.52;5.57;;;11.60;99.90;;;;;;4098707;29;20055;-78
2024/03/18 11:15:54;;;;;;;9.35;6.13;;;11.70;99.90;;;;;;4098700;29;20103;-80
2024/03/18 11:18:05;;;;;;;9.88;5.63;;;11.70;99.90;;;;;;4098772;29;20055;-77
2024/03/18 11:20:17;;;;;;;10.07;5.93;;;11.80;99.90;;;;;;4099111;29;20055;-77
2024/03/18 11:22:19;;;;;;;14.73;7.30;;;11.80;99.90;;;;;;4100560;28;20059;-77
2024/03/18 11:24:23;;;;;;;10.15;5.88;;;11.90;99.90;;;;;;4114551;28;20051;-80
2024/03/18 11:26:25;;;;;;;8.50;5.40;;;11.90;99.80;;;;;;4097514;29;20055;-80
2024/03/18 11:28:36;;;;;;;9.20;5.43;;;12.00;99.70;;;;;;4114627;28;20066;-79
2024/03/18 11:30:42;;;;;;;7.75;5.18;;;12.00;99.90;;;;;;4114775;28;20051;-79
2024/03/18 11:32:48;;;;;;;7.85;4.78;;;12.00;99.90;;;;;;4114159;28;20089;-78
2024/03/18 11:34:59;;;;;;;9.70;5.60;;;12.10;99.70;;;;;;4114658;28;20055;-80
2024/03/18 11:37:00;;;;;;;8.02;4.80;;;12.00;99.50;;;;;;4114176;28;20106;-80
2024/03/18 11:39:03;;;;;;;9.00;5.13;;;12.00;99.40;;;;;;4112874;28;20047;-77
2024/03/18 11:41:05;;;;;;;9.25;4.97;;;12.00;99.50;;;;;;4114483;28;20059;-78
2024/03/18 11:43:07;;;;;;;10.32;5.03;;;12.00;99.40;;;;;;4114513;28;20125;-80
2024/03/18 11:45:17;;;;;;;9.93;5.10;;;12.00;99.50;;;;;;4114525;28;20113;-80
2024/03/18 11:47:19;;;;;;;11.32;4.90;;;11.90;99.50;;;;;;4114437;28;20055;-80
2024/03/18 11:49:21;;;;;;;16.05;7.97;;;12.00;99.80;;;;;;4114125;28;20051;-80
2024/03/18 11:51:23;;;;;;;18.90;10.23;;;12.00;99.90;;;;;;4114508;28;20409;-78
2024/03/18 11:53:27;;;;;;;18.40;10.02;;;12.10;99.90;;;;;;4114265;28;20452;-79
2024/03/18 11:55:30;;;;;;;19.40;10.60;;;12.10;99.80;;;;;;4114315;28;20133;-78
2024/03/18 11:57:31;;;;;;;17.35;9.57;;;12.20;99.80;;;;;;4114266;28;20108;-78
2024/03/18 11:59:33;;;;;;;10.43;6.25;;;12.20;99.70;;;;;;4114529;28;20055;-78
2024/03/18 12:01:38;;;;;;;9.75;5.40;;;12.20;99.70;;;;;;4113744;28;20046;-78
2024/03/18 12:03:40;;;;;;;11.98;4.85;;;12.10;99.90;;;;;;4114398;28;20054;-78
2024/03/18 12:05:44;;;;;;;9.30;5.03;;;12.10;99.90;;;;;;4106425;28;20130;-78
2024/03/18 12:07:46;;;;;;;7.93;4.50;;;12.10;99.80;;;;;;4082776;29;20470;-77
2024/03/18 12:09:49;;;;;;;9.75;5.00;;;12.20;99.50;;;;;;4082635;29;20508;-79
2024/03/18 12:11:51;;;;;;;11.10;6.45;;;12.10;99.80;;;;;;4082518;29;20056;-78
2024/03/18 12:13:53;;;;;;;10.70;4.40;;;12.10;99.70;;;;;;4082145;29;20047;-80
2024/03/18 12:15:55;;;;;;;8.75;4.30;;;12.10;99.70;;;;;;4082604;29;20055;-79
2024/03/18 12:17:58;;;;;;;7.95;4.70;;;12.00;99.70;;;;;;4082488;29;20055;-79
2024/03/18 12:20:03;;;;;;;9.32;4.80;;;12.00;99.90;;;;;;4082524;29;20480;-78
2024/03/18 12:22:12;;;;;;;8.68;4.32;;;11.90;99.90;;;;;;4082544;28;20055;-78
2024/03/18 12:28:54;;;;;;;9.82;4.63;;;12.00;99.90;;;;;;4114268;28;20404;-77
2024/03/18 12:30:55;;;;;;;6.32;4.13;;;12.10;99.90;;;;;;4114257;28;20058;-77
2024/03/18 12:33:04;;;;;;;9.55;4.13;;;12.10;99.80;;;;;;4114101;28;20055;-77
2024/03/18 12:35:06;;;;;;;9.60;4.43;;;12.10;99.90;;;;;;4114140;28;20078;-78
2024/03/18 12:37:16;;;;;;;8.02;3.88;;;12.10;99.80;;;;;;4113754;28;20049;-78
2024/03/18 12:39:18;;;;;;;8.15;4.07;;;12.20;99.80;;;;;;4110855;28;20086;-79
2024/03/18 12:41:23;;;;;;;8.30;4.20;;;12.30;99.70;;;;;;4112919;28;20101;-78
2024/03/18 12:43:24;;;;;;;13.95;7.80;;;12.20;99.80;;;;;;4113921;28;20568;-78
2024/03/18 12:45:26;;;;;;;13.55;6.50;;;12.20;99.90;;;;;;4116569;28;20094;-80
2024/03/18 12:47:26;;;;;;;11.75;5.93;;;12.30;99.90;;;;;;4093208;28;20483;-79
2024/03/18 12:49:30;;;;;;;8.20;4.63;;;12.30;99.90;;;;;;4103611;28;20114;-79
2024/03/18 12:51:33;;;;;;;12.27;6.05;;;12.30;99.90;;;;;;4106098;28;20055;-79
2024/03/18 12:53:35;;;;;;;11.85;5.72;;;12.30;99.90;;;;;;4112829;28;20046;-78
2024/03/18 12:55:37;;;;;;;13.30;7.25;;;12.30;99.90;;;;;;4085732;28;20086;-80
2024/03/18 12:57:38;;;;;;;17.85;10.13;;;12.30;99.90;;;;;;4085222;29;20128;-80
2024/03/18 12:59:40;;;;;;;10.77;5.40;;;12.30;99.90;;;;;;4097685;28;20051;-79
2024/03/18 13:01:43;;;;;;;12.27;5.15;;;12.40;99.80;;;;;;4105394;28;20501;-79
2024/03/18 13:03:45;;;;;;;11.68;5.43;;;12.40;99.90;;;;;;4100997;28;20051;-78
2024/03/18 13:05:49;;;;;;;8.73;4.35;;;12.40;99.80;;;;;;4099623;28;20047;-80
2024/03/18 13:07:50;;;;;;;8.88;4.15;;;12.40;99.80;;;;;;4100984;29;20047;-79
2024/03/18 13:09:52;;;;;;;9.52;4.20;;;12.30;99.90;;;;;;4100626;28;20057;-79
2024/03/18 13:11:53;;;;;;;8.50;3.80;;;12.30;99.80;;;;;;4100805;29;20548;-80
2024/03/18 13:13:55;;;;;;;7.43;4.38;;;12.30;99.90;;;;;;4100854;29;20065;-80
2024/03/18 13:15:58;;;;;;;10.95;5.95;;;12.30;99.80;;;;;;4101692;28;20055;-77
2024/03/18 13:17:59;;;;;;;11.85;4.78;;;12.30;99.80;;;;;;4107571;28;20097;-80
2024/03/18 13:20:03;;;;;;;10.77;4.05;;;12.30;99.70;;;;;;4113771;28;20105;-79
2024/03/18 13:22:09;;;;;;;10.27;4.28;;;12.30;99.70;;;;;;4111476;28;20122;-79
2024/03/18 13:24:10;;;;;;;8.73;5.22;;;12.30;99.80;;;;;;4116065;28;20082;-79
2024/03/18 13:26:12;;;;;;;11.25;5.05;;;12.10;99.90;;;;;;4116160;28;20054;-80
2024/03/18 13:28:13;;;;;;;10.93;5.10;;;12.00;99.90;;;;;;4110234;28;20047;-79
2024/03/18 13:30:16;;;;;;;8.77;4.97;;;12.00;99.90;;;;;;4100443;28;20051;-80
2024/03/18 13:32:21;;;;;;;9.75;5.35;;;12.10;99.90;;;;;;4112356;28;20058;-79
2024/03/18 13:34:23;;;;;;;9.70;5.20;;;12.10;99.90;;;;;;4103561;28;20082;-78
2024/03/18 13:36:25;;;;;;;10.95;5.20;;;12.10;99.90;;;;;;4104847;28;20109;-79
2024/03/18 13:38:30;;;;;;;10.02;5.10;;;12.00;99.90;;;;;;4116175;28;20554;-79
2024/03/18 13:40:31;;;;;;;10.05;5.20;;;11.90;99.90;;;;;;4116067;28;20061;-79
2024/03/18 13:42:32;;;;;;;9.88;4.85;;;11.90;99.90;;;;;;4102041;28;20106;-79
2024/03/18 13:44:34;;;;;;;10.95;5.30;;;11.90;99.90;;;;;;4100210;29;20051;-79
2024/03/18 13:46:36;;;;;;;9.80;5.35;;;11.90;99.90;;;;;;4100302;28;20053;-78
2024/03/18 13:48:38;;;;;;;11.48;5.18;;;11.80;99.90;;;;;;4111396;28;20054;-80
2024/03/18 13:50:40;;;;;;;7.72;5.28;;;11.80;99.90;;;;;;4100466;28;20126;-79
2024/03/18 13:52:42;;;;;;;9.23;5.32;;;11.80;99.90;;;;;;4100190;29;20050;-79
2024/03/18 13:54:45;;;;;;;9.65;5.47;;;11.80;99.90;;;;;;4114016;28;20046;-80
2024/03/18 13:56:47;;;;;;;10.70;5.45;;;11.80;99.90;;;;;;4115973;28;20073;-80
2024/03/18 13:58:50;;;;;;;11.30;6.18;;;11.90;99.90;;;;;;4106135;28;20047;-79
2024/03/18 14:00:52;;;;;;;8.70;5.38;;;11.90;99.90;;;;;;4113549;28;20066;-78
2024/03/18 14:02:54;;;;;;;11.10;6.03;;;12.00;99.90;;;;;;4116143;28;20054;-79
2024/03/18 14:04:56;;;;;;;12.50;7.15;;;12.00;99.90;;;;;;4086041;28;20119;-78
2024/03/18 14:06:59;;;;;;;11.77;6.60;;;12.00;99.90;;;;;;4084123;29;20103;-79
2024/03/18 14:09:03;;;;;;;10.98;6.50;;;12.10;99.90;;;;;;4084142;29;20058;-77
2024/03/18 14:11:06;;;;;;;10.73;6.82;;;12.20;99.90;;;;;;4083874;29;20345;-79
2024/03/18 14:13:08;;;;;;;9.23;5.88;;;12.20;99.90;;;;;;4083859;29;20056;-75
2024/03/18 14:15:11;;;;;;;9.93;6.78;;;12.30;99.90;;;;;;4084598;29;20059;-84
2024/03/18 14:17:14;;;;;;;11.13;6.72;;;12.30;99.90;;;;;;4098197;29;20523;-83
2024/03/18 14:19:18;;;;;;;10.65;7.15;;;12.30;99.90;;;;;;4115755;28;20089;-77
2024/03/18 14:21:20;;;;;;;11.52;6.70;;;12.20;99.90;;;;;;4115883;28;20464;-75
2024/03/18 14:23:22;;;;;;;9.43;7.10;;;12.20;99.90;;;;;;4115839;28;20470;-79
2024/03/18 14:25:29;;;;;;;9.43;6.90;;;12.30;99.90;;;;;;4115556;28;20109;-78
2024/03/18 14:27:32;;;;;;;10.43;6.60;;;12.30;99.90;;;;;;4115728;28;20169;-79
2024/03/18 14:29:34;;;;;;;28.85;17.52;;;12.20;99.90;;;;;;4115585;28;20054;-79
2024/03/18 14:31:38;;;;;;;41.30;23.27;;;12.30;99.90;;;;;;4115560;28;20055;-79
2024/03/18 14:33:40;;;;;;;13.00;7.90;;;12.30;99.90;;;;;;4116115;28;20043;-78
2024/03/18 14:35:43;;;;;;;12.20;6.82;;;12.30;99.90;;;;;;4115984;28;20102;-77
2024/03/18 14:37:44;;;;;;;6.93;4.53;;;12.40;99.90;;;;;;4115939;28;20047;-78
2024/03/18 14:39:46;;;;;;;6.85;4.53;;;12.40;99.90;;;;;;4115472;28;20051;-78
2024/03/18 14:41:48;;;;;;;8.52;4.90;;;12.50;99.90;;;;;;4115545;28;20051;-78
2024/03/18 14:43:52;;;;;;;6.97;5.13;;;12.60;99.90;;;;;;4115800;28;20555;-77
2024/03/18 14:45:54;;;;;;;7.68;4.30;;;13.20;99.40;;;;;;4115538;28;20059;-79
2024/03/18 14:47:56;;;;;;;7.43;4.35;;;13.20;98.40;;;;;;4115281;28;20113;-78
2024/03/18 14:49:58;;;;;;;7.25;4.53;;;13.20;98.10;;;;;;4115114;28;20050;-78
2024/03/18 14:51:59;;;;;;;7.63;4.53;;;13.20;98.60;;;;;;4113299;28;20047;-80
2024/03/18 14:54:01;;;;;;;5.85;3.80;;;13.30;98.30;;;;;;4083460;29;20509;-78
2024/03/18 14:56:05;;;;;;;6.47;3.80;;;13.30;98.20;;;;;;4083459;29;20052;-79
2024/03/18 14:58:08;;;;;;;6.45;4.00;;;13.30;98.60;;;;;;4083610;29;20051;-79
2024/03/18 15:00:13;;;;;;;6.93;4.10;;;13.10;98.60;;;;;;4083485;28;20366;-79
2024/03/18 15:02:15;;;;;;;6.50;3.80;;;13.10;98.70;;;;;;4098503;28;20059;-80
2024/03/18 15:04:16;;;;;;;6.43;3.70;;;13.10;98.80;;;;;;4096992;29;20127;-79
2024/03/18 15:06:18;;;;;;;6.88;4.10;;;13.00;98.90;;;;;;4105825;28;20051;-78
2024/03/18 15:08:21;;;;;;;7.78;4.53;;;13.00;99.00;;;;;;4098319;29;20055;-78
2024/03/18 15:10:23;;;;;;;9.20;4.30;;;12.80;99.40;;;;;;4100556;28;20059;-79
2024/03/18 15:12:25;;;;;;;7.97;4.22;;;12.80;99.70;;;;;;4098631;29;20146;-79
2024/03/18 15:14:27;;;;;;;7.13;4.07;;;12.80;99.70;;;;;;4098614;29;20055;-78
2024/03/18 15:16:30;;;;;;;10.75;5.57;;;12.80;99.30;;;;;;4098596;28;20047;-78
2024/03/18 15:18:32;;;;;;;8.38;5.30;;;12.70;99.40;;;;;;4082992;29;20761;-81
2024/03/18 15:20:33;;;;;;;9.25;4.80;;;12.70;99.60;;;;;;4091608;28;20047;-80
2024/03/18 15:22:35;;;;;;;8.48;4.93;;;12.70;99.90;;;;;;4098732;28;20055;-80
2024/03/18 15:24:49;;;;;;;7.70;5.03;;;12.70;99.90;;;;;;4098374;28;20047;-79
2024/03/18 15:29:10;;;;;;;7.90;4.90;;;12.70;99.90;;;;;;4099907;28;20132;-79
2024/03/18 15:31:12;;;;;;;8.77;5.40;;;12.70;99.90;;;;;;4097992;28;20463;-78
2024/03/18 15:33:14;;;;;;;8.43;4.88;;;12.70;99.90;;;;;;4100771;28;20105;-80
2024/03/18 15:35:16;;;;;;;7.97;4.72;;;12.70;99.90;;;;;;4110972;28;20473;-79
2024/03/18 15:37:18;;;;;;;9.05;5.10;;;12.70;99.90;;;;;;4099485;28;20055;-79
2024/03/18 15:39:22;;;;;;;7.35;4.57;;;12.80;99.90;;;;;;4098686;29;20106;-78
2024/03/18 15:41:25;;;;;;;7.13;4.03;;;12.80;99.90;;;;;;4098394;28;20062;-81
2024/03/18 15:43:27;;;;;;;6.00;3.80;;;12.90;99.90;;;;;;4098498;28;20082;-79
2024/03/18 15:45:28;;;;;;;7.15;3.85;;;13.00;99.80;;;;;;4099224;28;20047;-76
2024/03/18 15:47:31;;;;;;;5.80;3.45;;;13.10;99.70;;;;;;4107537;28;20055;-80
2024/03/18 15:49:35;;;;;;;6.70;3.90;;;13.20;99.50;;;;;;4098003;29;20058;-80
2024/03/18 15:51:37;;;;;;;7.03;3.55;;;13.20;99.30;;;;;;4098376;29;20138;-79
2024/03/18 15:53:38;;;;;;;6.40;3.72;;;13.20;99.30;;;;;;4098261;28;20494;-80
2024/03/18 15:55:40;;;;;;;6.07;3.58;;;13.20;99.60;;;;;;4099587;28;20469;-80
2024/03/18 15:57:42;;;;;;;8.95;4.50;;;13.30;99.40;;;;;;4093297;29;20571;-80
2024/03/18 15:59:43;;;;;;;9.02;4.88;;;13.40;99.40;;;;;;4098275;29;20449;-79
2024/03/18 16:01:45;;;;;;;8.55;4.60;;;13.50;99.20;;;;;;4097896;29;20054;-79
2024/03/18 16:03:47;;;;;;;7.68;4.47;;;13.60;99.10;;;;;;4098509;28;20055;-82
2024/03/18 16:05:50;;;;;;;8.63;4.68;;;13.60;99.10;;;;;;4109431;28;20664;-78
2024/03/18 16:07:52;;;;;;;8.15;4.18;;;13.70;98.90;;;;;;4097694;29;20047;-80
2024/03/18 16:09:53;;;;;;;8.90;4.60;;;13.90;98.60;;;;;;4098247;29;20051;-81
2024/03/18 16:11:55;;;;;;;8.68;3.85;;;14.30;98.20;;;;;;4098216;29;20098;-78
2024/03/18 16:13:57;;;;;;;7.45;4.03;;;14.30;97.40;;;;;;4097669;29;20532;-78
2024/03/18 16:15:58;;;;;;;9.35;4.25;;;14.40;97.00;;;;;;4098256;29;20114;-80
2024/03/18 16:18:00;;;;;;;7.57;4.40;;;14.40;97.00;;;;;;4098735;28;20051;-79
2024/03/18 16:20:04;;;;;;;8.02;4.47;;;14.50;96.50;;;;;;4101477;29;20055;-79
2024/03/18 16:22:07;;;;;;;9.05;4.40;;;14.70;96.20;;;;;;4101583;29;20062;-79
2024/03/18 16:24:10;;;;;;;8.52;4.40;;;15.20;95.80;;;;;;4100920;29;20039;-79
2024/03/18 16:26:11;;;;;;;6.57;3.63;;;15.80;94.70;;;;;;4100998;29;20555;-77
2024/03/18 16:28:13;;;;;;;6.00;3.47;;;16.10;93.80;;;;;;4100831;29;20059;-80
2024/03/18 16:30:14;;;;;;;6.57;4.05;;;16.40;93.30;;;;;;4100617;29;20150;-80
2024/03/18 16:32:17;;;;;;;7.03;3.78;;;16.40;92.70;;;;;;4100987;29;20083;-79
2024/03/18 16:34:19;;;;;;;7.53;3.78;;;16.30;92.40;;;;;;4101150;29;20142;-79
2024/03/18 16:36:22;;;;;;;6.60;3.80;;;16.10;92.40;;;;;;4100926;29;20051;-80
2024/03/18 16:38:26;;;;;;;5.68;3.63;;;15.90;92.60;;;;;;4096085;28;20526;-79
2024/03/18 16:40:28;;;;;;;8.23;3.70;;;15.70;92.90;;;;;;4101785;28;20054;-77
2024/03/18 16:42:30;;;;;;;7.28;3.78;;;15.50;93.10;;;;;;4099848;29;20059;-78